Colter Bay, Wyoming
Current Conditions -  °F | °C
As of 7:59 PM on Tuesday 21 Oct 2014 (Local Time) from KAJL Reporting Station
Overcast Overcast  
Wind Chill: 13°   Ceiling: 1500
Heat Index: 25°   Visibility: 10mi
Dew Point: 22°   Wind: 15mph
Humidity: 87%   Direction: 260°W
Pressure: 30.07"   Gusts: 25mph
Location:  43.9295°N, 110.33°W
Report Text: KAJL 220159Z AUTO 26013G22KT 10SM OVC015 M04/M05 A3007 RMK AO2 T10371055
Loading
Personal Weather Stations






























Interactive Weather Map
Tropical Storm Tracking
New forecast layout! Learn more

10-Day Weather Forecast

Advertisements
Track Severe Weather on mobile